createdAt,value
2019-03-29T00:01:49.114Z,18.45
2019-03-29T00:04:19.455Z,16.87
2019-03-29T00:06:49.814Z,19.70
2019-03-29T00:09:20.151Z,20.80
2019-03-29T00:11:50.503Z,18.60
2019-03-29T00:14:23.469Z,20.97
2019-03-29T00:16:52.877Z,18.60
2019-03-29T00:19:23.220Z,21.68
2019-03-29T00:21:53.551Z,18.60
2019-03-29T00:24:23.962Z,19.17
2019-03-29T00:26:54.298Z,21.23
2019-03-29T00:29:24.638Z,18.77
2019-03-29T00:31:55.158Z,19.90
2019-03-29T00:34:25.506Z,21.70
2019-03-29T00:36:55.815Z,19.10
2019-03-29T00:39:26.149Z,20.02
2019-03-29T00:41:56.486Z,20.20
2019-03-29T00:44:26.984Z,18.80
2019-03-29T00:46:57.554Z,20.62
2019-03-29T00:49:27.900Z,20.25
2019-03-29T00:51:59.311Z,21.40
2019-03-29T00:54:30.148Z,20.85
2019-03-29T00:57:00.491Z,19.80
2019-03-29T00:59:30.869Z,19.37
2019-03-29T01:02:01.202Z,19.77
2019-03-29T01:04:31.552Z,19.80
2019-03-29T01:07:01.887Z,20.57
2019-03-29T01:09:32.237Z,20.82
2019-03-29T01:12:02.568Z,20.50
2019-03-29T01:14:32.900Z,21.65
2019-03-29T01:17:03.238Z,24.77
2019-03-29T01:19:33.581Z,24.10
2019-03-29T01:22:03.916Z,19.20
2019-03-29T01:24:34.255Z,22.95
2019-03-29T01:27:04.587Z,23.12
2019-03-29T01:29:34.930Z,22.05
2019-03-29T01:32:05.258Z,21.68
2019-03-29T01:34:35.606Z,21.50
2019-03-29T01:37:05.951Z,20.62
2019-03-29T01:39:36.300Z,23.55
2019-03-29T01:42:06.701Z,23.38
2019-03-29T01:44:37.051Z,23.42
2019-03-29T01:47:07.389Z,24.57
2019-03-29T01:49:37.742Z,25.20
2019-03-29T01:52:08.068Z,22.35
2019-03-29T01:54:38.412Z,24.65
2019-03-29T01:57:08.742Z,24.20
2019-03-29T01:59:39.084Z,23.38
2019-03-29T02:02:09.426Z,21.65
2019-03-29T02:04:39.785Z,24.10
2019-03-29T02:07:10.113Z,24.65
2019-03-29T02:09:40.451Z,22.35
2019-03-29T02:12:10.852Z,26.33
2019-03-29T02:14:41.189Z,23.85
2019-03-29T02:17:12.484Z,23.57
2019-03-29T02:19:42.827Z,23.32
2019-03-29T02:22:13.169Z,24.07
2019-03-29T02:24:43.513Z,23.60
2019-03-29T02:27:14.809Z,22.60
2019-03-29T02:29:45.149Z,22.17
2019-03-29T02:32:15.476Z,24.85
2019-03-29T02:34:45.839Z,23.27
2019-03-29T02:37:16.177Z,23.00
2019-03-29T02:39:46.521Z,24.37
2019-03-29T02:42:16.865Z,23.45
2019-03-29T02:44:47.198Z,23.42
2019-03-29T02:47:17.549Z,21.73
2019-03-29T02:49:47.882Z,25.88
2019-03-29T02:52:18.245Z,23.87
2019-03-29T02:54:48.597Z,21.35
2019-03-29T02:57:18.928Z,25.52
2019-03-29T02:59:49.270Z,25.68
2019-03-29T03:02:19.600Z,23.55
2019-03-29T03:04:49.947Z,23.98
2019-03-29T03:07:20.289Z,25.05
2019-03-29T03:09:50.815Z,25.50
2019-03-29T03:12:21.142Z,22.17
2019-03-29T03:14:51.501Z,24.07
2019-03-29T03:17:21.903Z,28.75
2019-03-29T03:19:52.249Z,25.25
2019-03-29T03:22:22.874Z,25.57
2019-03-29T03:24:53.206Z,29.37
2019-03-29T03:27:23.545Z,24.98
2019-03-29T03:29:53.886Z,27.98
2019-03-29T03:32:24.271Z,26.23
2019-03-29T03:34:54.580Z,25.62
2019-03-29T03:37:25.231Z,28.25
2019-03-29T03:39:55.565Z,23.05
2019-03-29T03:42:25.903Z,28.80
2019-03-29T03:44:56.256Z,27.07
2019-03-29T03:47:26.854Z,27.42
2019-03-29T03:50:00.715Z,28.23
2019-03-29T03:52:29.281Z,23.77
2019-03-29T03:54:59.613Z,28.42
2019-03-29T03:57:30.349Z,29.27
2019-03-29T04:00:02.195Z,29.80
2019-03-29T04:02:32.531Z,25.95
2019-03-29T04:05:02.858Z,26.55
2019-03-29T04:07:33.189Z,30.20
2019-03-29T04:10:04.772Z,25.68
2019-03-29T04:12:35.106Z,28.67
2019-03-29T04:15:06.159Z,29.52
2019-03-29T04:17:36.490Z,25.05
2019-03-29T04:20:07.568Z,27.05
2019-03-29T04:22:37.911Z,25.88
2019-03-29T04:25:20.413Z,28.87
2019-03-29T04:27:50.774Z,30.10
2019-03-29T04:30:21.109Z,29.23
2019-03-29T04:32:51.448Z,26.50
2019-03-29T04:35:21.775Z,25.52
2019-03-29T04:37:52.128Z,24.82
2019-03-29T04:40:22.463Z,27.22
2019-03-29T04:42:52.809Z,29.60
2019-03-29T04:45:23.149Z,34.63
2019-03-29T04:47:53.482Z,30.15
2019-03-29T04:50:23.829Z,32.20
2019-03-29T04:52:54.166Z,29.12
2019-03-29T04:55:24.501Z,30.43
2019-03-29T04:57:54.841Z,32.28
2019-03-29T05:00:25.268Z,30.25
2019-03-29T05:02:55.609Z,27.20
2019-03-29T05:05:25.946Z,31.90
2019-03-29T05:07:56.283Z,28.77
2019-03-29T05:10:26.608Z,29.87
2019-03-29T05:12:59.550Z,29.77
2019-03-29T05:15:31.017Z,28.50
2019-03-29T05:18:02.422Z,26.90
2019-03-29T05:20:32.760Z,25.85
2019-03-29T05:23:03.098Z,28.90
2019-03-29T05:25:33.429Z,25.02
2019-03-29T05:28:03.832Z,27.70
2019-03-29T05:30:34.167Z,27.67
2019-03-29T05:33:04.506Z,25.77
2019-03-29T05:35:34.836Z,27.32
2019-03-29T05:38:05.171Z,30.97
2019-03-29T05:40:35.793Z,29.52
2019-03-29T05:43:06.127Z,29.40
2019-03-29T05:45:36.459Z,27.05
2019-03-29T05:48:06.789Z,30.52
2019-03-29T05:50:37.395Z,28.52
2019-03-29T05:53:07.727Z,30.85
2019-03-29T05:55:38.059Z,30.20
2019-03-29T05:58:08.418Z,30.90
2019-03-29T06:00:38.738Z,37.53
2019-03-29T06:03:10.203Z,31.75
2019-03-29T06:05:40.790Z,33.08
2019-03-29T06:08:11.127Z,33.33
2019-03-29T06:10:48.982Z,32.67
2019-03-29T06:13:13.781Z,33.55
2019-03-29T06:15:44.126Z,30.70
2019-03-29T06:18:14.458Z,28.87
2019-03-29T06:20:44.809Z,28.62
2019-03-29T06:23:15.140Z,33.45
2019-03-29T06:25:45.491Z,28.20
2019-03-29T06:28:15.827Z,32.95
2019-03-29T06:30:48.038Z,31.12
2019-03-29T06:33:19.411Z,30.48
2019-03-29T06:35:53.565Z,31.15
2019-03-29T06:38:26.014Z,30.50
2019-03-29T06:41:02.740Z,35.48
2019-03-29T06:43:28.440Z,35.85
2019-03-29T06:45:58.768Z,39.38
2019-03-29T06:48:29.106Z,30.92
2019-03-29T06:50:59.438Z,37.10
2019-03-29T06:53:29.799Z,30.65
2019-03-29T06:56:00.133Z,31.68
2019-03-29T06:58:30.475Z,30.97
2019-03-29T07:01:00.826Z,28.73
2019-03-29T07:03:31.163Z,27.52
2019-03-29T07:06:01.763Z,24.43
2019-03-29T07:08:32.105Z,26.93
2019-03-29T07:11:16.195Z,27.37
2019-03-29T07:13:34.543Z,29.77
2019-03-29T07:16:04.836Z,22.42
2019-03-29T07:18:35.185Z,25.82
2019-03-29T07:21:05.536Z,21.60
2019-03-29T07:23:37.010Z,22.32
2019-03-29T07:26:07.360Z,21.93
2019-03-29T07:28:37.727Z,24.05
2019-03-29T07:31:08.085Z,24.35
2019-03-29T07:33:38.430Z,23.05
2019-03-29T07:36:08.771Z,24.65
2019-03-29T07:38:39.960Z,25.80
2019-03-29T07:41:10.304Z,24.55
2019-03-29T07:43:40.685Z,28.47
2019-03-29T07:46:11.054Z,29.35
2019-03-29T07:48:41.396Z,36.50
2019-03-29T07:51:11.752Z,35.83
2019-03-29T07:53:44.926Z,37.42
2019-03-29T07:56:15.125Z,41.30
2019-03-29T07:58:45.484Z,41.92
2019-03-29T08:01:15.824Z,47.98
2019-03-29T08:03:46.184Z,51.45
2019-03-29T08:06:16.527Z,51.33
2019-03-29T08:08:46.876Z,50.90
2019-03-29T08:11:25.932Z,50.12
2019-03-29T08:13:49.273Z,46.83
2019-03-29T08:16:19.625Z,45.75
2019-03-29T08:18:49.971Z,43.20
2019-03-29T08:21:20.314Z,47.50
2019-03-29T08:23:50.674Z,47.20
2019-03-29T08:26:21.011Z,47.17
2019-03-29T08:28:51.357Z,46.85
2019-03-29T08:31:21.699Z,47.90
2019-03-29T08:33:52.055Z,45.43
2019-03-29T08:36:22.396Z,43.58
2019-03-29T08:38:52.755Z,43.50
2019-03-29T08:41:23.097Z,42.38
2019-03-29T08:43:53.463Z,43.63
2019-03-29T08:46:23.822Z,44.10
2019-03-29T08:48:54.232Z,43.45
2019-03-29T08:51:24.588Z,43.70
2019-03-29T08:53:54.944Z,48.65
2019-03-29T08:56:25.287Z,42.30
2019-03-29T08:58:55.647Z,39.30
2019-03-29T09:01:26.366Z,42.65
2019-03-29T09:04:05.161Z,42.35
2019-03-29T09:06:30.268Z,48.65
2019-03-29T09:09:01.819Z,50.90
2019-03-29T09:11:33.794Z,44.70
2019-03-29T09:14:04.157Z,46.37
2019-03-29T09:16:34.492Z,45.05
2019-03-29T09:19:04.843Z,46.92
2019-03-29T09:21:35.191Z,48.68
2019-03-29T09:24:05.547Z,47.62
2019-03-29T09:26:35.912Z,50.30
2019-03-29T09:29:06.243Z,53.23
2019-03-29T09:31:36.589Z,51.68
2019-03-29T09:34:06.931Z,50.80
2019-03-29T09:36:37.286Z,52.03
2019-03-29T09:39:08.071Z,54.88
2019-03-29T09:41:38.418Z,51.95
2019-03-29T09:44:08.760Z,52.53
2019-03-29T09:46:41.911Z,51.55
2019-03-29T09:49:12.267Z,46.58
2019-03-29T09:51:42.619Z,47.62
2019-03-29T09:54:12.980Z,49.55
2019-03-29T09:56:43.349Z,55.78
2019-03-29T09:59:16.345Z,54.38
2019-03-29T10:01:45.742Z,54.10
2019-03-29T10:04:16.083Z,51.80
2019-03-29T10:06:46.443Z,48.38
2019-03-29T10:09:16.816Z,47.50
2019-03-29T10:11:47.178Z,50.28
2019-03-29T10:14:17.521Z,46.92
2019-03-29T10:16:47.877Z,51.30
2019-03-29T10:19:18.219Z,47.10
2019-03-29T10:21:48.570Z,47.50
2019-03-29T10:24:18.911Z,52.10
2019-03-29T10:26:49.253Z,51.85
2019-03-29T10:29:19.603Z,50.38
2019-03-29T10:31:49.958Z,46.88
2019-03-29T10:34:20.320Z,45.88
2019-03-29T10:36:50.673Z,50.65
2019-03-29T10:39:21.017Z,46.58
2019-03-29T10:41:51.370Z,44.63
2019-03-29T10:44:21.719Z,49.77
2019-03-29T10:46:52.061Z,42.88
2019-03-29T10:49:22.404Z,42.90
2019-03-29T10:51:52.758Z,42.55
2019-03-29T10:54:23.170Z,43.95
2019-03-29T10:56:53.614Z,44.03
2019-03-29T10:59:27.833Z,46.85
2019-03-29T11:01:56.963Z,44.25
2019-03-29T11:04:27.310Z,38.55
2019-03-29T11:06:57.661Z,40.33
2019-03-29T11:09:29.160Z,38.45
2019-03-29T11:11:59.504Z,41.15
2019-03-29T11:14:29.857Z,40.78
2019-03-29T11:17:01.005Z,40.88
2019-03-29T11:19:31.448Z,40.83
2019-03-29T11:22:01.803Z,40.23
2019-03-29T11:24:32.239Z,38.73
2019-03-29T11:27:02.658Z,37.30
2019-03-29T11:29:33.018Z,37.80
2019-03-29T11:32:04.412Z,45.05
2019-03-29T11:34:34.752Z,47.78
2019-03-29T11:37:05.108Z,44.33
2019-03-29T11:39:35.458Z,40.78
2019-03-29T11:42:05.808Z,44.23
2019-03-29T11:44:36.157Z,45.80
2019-03-29T11:47:06.583Z,51.70
2019-03-29T11:49:36.929Z,45.65
2019-03-29T11:52:08.265Z,49.40
2019-03-29T11:54:38.615Z,49.15
2019-03-29T11:57:08.981Z,51.77
2019-03-29T11:59:40.287Z,48.13
2019-03-29T12:02:10.858Z,49.63
2019-03-29T12:04:41.206Z,49.60
2019-03-29T12:07:12.042Z,48.38
2019-03-29T12:09:42.392Z,46.83
2019-03-29T12:12:12.755Z,48.15
2019-03-29T12:14:43.106Z,46.30
2019-03-29T12:17:13.523Z,49.33
2019-03-29T12:19:43.902Z,48.15
2019-03-29T12:22:14.245Z,48.98
2019-03-29T12:24:44.596Z,53.05
2019-03-29T12:27:16.019Z,54.08
2019-03-29T12:29:46.367Z,49.48
2019-03-29T12:32:16.777Z,47.45
2019-03-29T12:34:47.112Z,46.90
2019-03-29T12:37:17.477Z,46.85
2019-03-29T12:39:47.823Z,53.75
2019-03-29T12:42:18.176Z,54.73
2019-03-29T12:44:48.524Z,46.42
2019-03-29T12:47:18.875Z,50.10
2019-03-29T12:49:49.214Z,52.33
2019-03-29T12:52:19.569Z,53.33
2019-03-29T12:54:49.922Z,49.80
2019-03-29T12:57:20.271Z,50.67
2019-03-29T12:59:50.619Z,51.63
2019-03-29T13:02:20.964Z,49.05
2019-03-29T13:04:51.325Z,47.25
2019-03-29T13:07:21.675Z,51.58
2019-03-29T13:09:52.033Z,52.90
2019-03-29T13:12:22.378Z,51.42
2019-03-29T13:14:52.734Z,49.25
2019-03-29T13:17:23.083Z,46.65
2019-03-29T13:19:53.432Z,48.68
2019-03-29T13:22:23.850Z,56.45
2019-03-29T13:24:54.194Z,52.17
2019-03-29T13:27:24.544Z,50.43
2019-03-29T13:29:54.893Z,49.30
2019-03-29T13:32:25.235Z,51.15
2019-03-29T13:34:55.582Z,48.02
2019-03-29T13:37:25.923Z,54.35
2019-03-29T13:39:56.280Z,52.80
2019-03-29T13:42:26.631Z,46.98
2019-03-29T13:44:56.986Z,55.70
2019-03-29T13:47:27.330Z,48.48
2019-03-29T13:49:57.705Z,48.13
2019-03-29T13:52:31.101Z,46.60
2019-03-29T13:55:00.345Z,46.68
2019-03-29T13:57:30.752Z,48.52
2019-03-29T14:00:01.115Z,48.48
2019-03-29T14:02:31.444Z,45.85
2019-03-29T14:05:01.805Z,49.88
2019-03-29T14:07:32.150Z,47.80
2019-03-29T14:10:02.505Z,49.67
2019-03-29T14:12:32.846Z,42.03
2019-03-29T14:15:03.200Z,45.30
2019-03-29T14:17:35.213Z,49.93
2019-03-29T14:20:06.563Z,43.00
2019-03-29T14:22:37.882Z,44.33
2019-03-29T14:25:08.833Z,46.20
2019-03-29T14:27:39.186Z,46.88
2019-03-29T14:30:10.244Z,48.52
2019-03-29T14:32:40.586Z,42.58
2019-03-29T14:35:11.736Z,42.27
2019-03-29T14:37:42.086Z,38.02
2019-03-29T14:40:12.940Z,45.88
2019-03-29T14:42:43.281Z,40.95
2019-03-29T14:45:15.143Z,43.50
2019-03-29T14:47:45.493Z,43.33
2019-03-29T14:50:16.149Z,37.30
2019-03-29T14:52:46.501Z,38.95
2019-03-29T14:55:16.855Z,38.08
2019-03-29T14:57:47.194Z,39.65
2019-03-29T15:00:22.152Z,37.20
2019-03-29T15:02:52.502Z,48.17
2019-03-29T15:05:22.847Z,40.75
2019-03-29T15:07:53.360Z,38.92
2019-03-29T15:10:28.227Z,38.67
2019-03-29T15:12:58.562Z,39.48
2019-03-29T15:15:28.918Z,40.20
2019-03-29T15:18:00.320Z,41.33
2019-03-29T15:20:30.675Z,37.73
2019-03-29T15:23:01.017Z,38.67
2019-03-29T15:25:31.365Z,38.88
2019-03-29T15:28:01.726Z,40.90
2019-03-29T15:30:32.070Z,38.83
2019-03-29T15:33:02.413Z,39.15
2019-03-29T15:35:32.754Z,36.05
2019-03-29T15:38:03.103Z,36.08
2019-03-29T15:40:33.518Z,36.13
2019-03-29T15:43:03.855Z,33.18
2019-03-29T15:45:35.270Z,33.92
2019-03-29T15:48:05.689Z,35.40
2019-03-29T15:50:36.042Z,35.52
2019-03-29T15:53:06.381Z,33.53
2019-03-29T15:55:37.804Z,34.78
2019-03-29T15:58:08.155Z,33.20
2019-03-29T16:00:38.509Z,32.95
2019-03-29T16:03:08.868Z,29.32
2019-03-29T16:05:39.203Z,29.82
2019-03-29T16:08:09.548Z,38.38
2019-03-29T16:10:41.326Z,31.65
2019-03-29T16:13:11.946Z,36.63
2019-03-29T16:15:42.291Z,37.05
2019-03-29T16:18:12.636Z,34.50
2019-03-29T16:20:42.979Z,29.00
2019-03-29T16:23:13.322Z,30.55
2019-03-29T16:25:43.667Z,26.27
2019-03-29T16:28:14.012Z,27.67
2019-03-29T16:30:45.985Z,24.12
2019-03-29T16:33:16.341Z,21.45
2019-03-29T16:35:46.690Z,23.50
2019-03-29T16:38:17.043Z,22.85
2019-03-29T16:40:47.403Z,24.20
2019-03-29T16:43:17.737Z,26.93
2019-03-29T16:45:48.542Z,25.40
2019-03-29T16:48:19.003Z,23.52
2019-03-29T16:50:49.369Z,22.75
2019-03-29T16:53:19.725Z,24.87
2019-03-29T16:55:50.073Z,23.77
2019-03-29T16:58:20.420Z,25.37
2019-03-29T17:00:50.776Z,24.72
2019-03-29T17:03:21.118Z,24.18
2019-03-29T17:05:51.472Z,26.90
2019-03-29T17:08:21.810Z,23.45
2019-03-29T17:10:52.151Z,25.30
2019-03-29T17:13:22.498Z,23.85
2019-03-29T17:16:01.621Z,40.05
2019-03-29T17:18:29.424Z,45.63
2019-03-29T17:20:57.052Z,49.40
2019-03-29T17:23:27.355Z,51.08
2019-03-29T17:25:57.705Z,50.70
2019-03-29T17:28:28.063Z,51.42
2019-03-29T17:31:00.128Z,51.92
2019-03-29T17:33:31.541Z,50.38
2019-03-29T17:36:01.888Z,53.48
2019-03-29T17:38:32.236Z,47.33
2019-03-29T17:41:02.585Z,57.48
2019-03-29T17:43:33.266Z,50.38
2019-03-29T17:46:15.494Z,51.30
2019-03-29T17:48:35.728Z,48.83
2019-03-29T17:51:07.697Z,47.48
2019-03-29T17:53:38.037Z,50.75
2019-03-29T17:56:08.388Z,53.73
2019-03-29T17:58:38.739Z,48.13
2019-03-29T18:01:09.082Z,51.37
2019-03-29T18:03:39.436Z,51.02
2019-03-29T18:06:09.963Z,48.17
2019-03-29T18:08:40.605Z,55.10
2019-03-29T18:11:11.027Z,68.60
2019-03-29T18:13:41.384Z,59.35
2019-03-29T18:16:11.739Z,56.70
2019-03-29T18:18:42.085Z,53.80
2019-03-29T18:21:12.438Z,51.90
2019-03-29T18:23:42.812Z,53.45
2019-03-29T18:26:13.148Z,52.83
2019-03-29T18:28:43.491Z,56.68
2019-03-29T18:31:13.906Z,70.90
2019-03-29T18:33:45.458Z,60.67
2019-03-29T18:36:15.946Z,52.27
2019-03-29T18:38:48.762Z,53.95
2019-03-29T18:41:19.126Z,54.63
2019-03-29T18:43:49.495Z,50.35
2019-03-29T18:46:19.812Z,50.50
2019-03-29T18:48:50.176Z,54.08
2019-03-29T18:51:20.525Z,55.73
2019-03-29T18:53:50.874Z,55.78
2019-03-29T18:56:21.223Z,60.78
2019-03-29T18:58:51.565Z,53.20
2019-03-29T19:01:21.915Z,54.90
2019-03-29T19:03:52.258Z,55.50
2019-03-29T19:06:22.619Z,61.42
2019-03-29T19:08:52.965Z,58.58
2019-03-29T19:11:23.310Z,55.88
2019-03-29T19:13:53.947Z,56.08
2019-03-29T19:16:24.298Z,55.10
2019-03-29T19:18:54.646Z,53.33
2019-03-29T19:21:25.761Z,59.20
2019-03-29T19:23:56.170Z,53.30
2019-03-29T19:26:26.511Z,53.40
2019-03-29T19:28:56.864Z,52.00
2019-03-29T19:31:27.213Z,57.45
2019-03-29T19:33:57.572Z,60.63
2019-03-29T19:36:27.927Z,60.45
2019-03-29T19:38:58.591Z,56.45
2019-03-29T19:41:28.935Z,59.15
2019-03-29T19:43:59.289Z,59.53
2019-03-29T19:46:29.650Z,59.15
2019-03-29T19:49:00.007Z,59.33
2019-03-29T19:51:30.348Z,59.00
2019-03-29T19:54:07.121Z,64.42
2019-03-29T19:56:32.742Z,59.53
2019-03-29T19:59:03.111Z,57.48
2019-03-29T20:01:33.465Z,54.25
2019-03-29T20:04:04.232Z,58.50
2019-03-29T20:06:34.580Z,60.20
2019-03-29T20:09:08.400Z,61.20
2019-03-29T20:11:39.088Z,61.85
2019-03-29T20:14:09.441Z,62.90
2019-03-29T20:16:39.784Z,61.30
2019-03-29T20:19:10.129Z,61.75
2019-03-29T20:21:40.504Z,65.32
2019-03-29T20:24:10.848Z,69.05
2019-03-29T20:26:41.199Z,64.82
2019-03-29T20:29:12.510Z,62.17
2019-03-29T20:31:42.867Z,61.20
2019-03-29T20:34:13.214Z,60.20
2019-03-29T20:36:43.635Z,64.47
2019-03-29T20:39:13.988Z,58.92
2019-03-29T20:41:44.343Z,64.03
2019-03-29T20:44:14.688Z,62.25
2019-03-29T20:46:45.027Z,66.77
2019-03-29T20:49:17.257Z,66.20
2019-03-29T20:51:50.656Z,62.65
2019-03-29T20:54:21.975Z,63.58
2019-03-29T20:56:52.549Z,65.45
2019-03-29T20:59:43.916Z,64.70
2019-03-29T21:02:14.259Z,66.72
2019-03-29T21:04:44.602Z,61.77
2019-03-29T21:07:14.949Z,62.73
2019-03-29T21:09:45.629Z,67.42
2019-03-29T21:12:15.979Z,66.40
2019-03-29T21:14:46.316Z,68.95
2019-03-29T21:17:17.952Z,66.53
2019-03-29T21:19:49.466Z,63.15
2019-03-29T21:22:19.803Z,66.07
2019-03-29T21:24:50.152Z,65.20
2019-03-29T21:27:20.489Z,67.55
2019-03-29T21:29:50.849Z,69.15
2019-03-29T21:32:21.188Z,73.12
2019-03-29T21:34:51.532Z,68.62
2019-03-29T21:37:21.879Z,66.37
2019-03-29T21:39:52.215Z,67.15
2019-03-29T21:42:22.558Z,73.50
2019-03-29T21:44:52.898Z,65.87
2019-03-29T21:47:23.245Z,71.50
2019-03-29T21:49:53.601Z,68.22
2019-03-29T21:52:23.929Z,65.70
2019-03-29T21:54:54.275Z,63.65
2019-03-29T21:57:24.615Z,68.75
2019-03-29T21:59:54.956Z,66.53
2019-03-29T22:02:25.311Z,69.50
2019-03-29T22:04:55.651Z,74.55
2019-03-29T22:07:25.993Z,70.05
2019-03-29T22:09:56.336Z,71.37
2019-03-29T22:12:26.686Z,70.25
2019-03-29T22:14:57.048Z,76.53
2019-03-29T22:17:27.384Z,70.15
2019-03-29T22:19:57.726Z,73.42
2019-03-29T22:22:28.066Z,72.42
2019-03-29T22:24:58.410Z,73.50
2019-03-29T22:27:28.751Z,75.32
2019-03-29T22:29:59.090Z,66.92
2019-03-29T22:32:29.433Z,75.62
2019-03-29T22:34:59.778Z,74.72
2019-03-29T22:37:30.121Z,73.95
2019-03-29T22:40:00.454Z,78.12
2019-03-29T22:42:30.792Z,73.92
2019-03-29T22:45:01.135Z,71.85
2019-03-29T22:47:31.477Z,79.72
2019-03-29T22:50:01.824Z,80.20
2019-03-29T22:52:32.171Z,72.85
2019-03-29T22:55:02.578Z,78.85
2019-03-29T22:57:32.926Z,76.02
2019-03-29T23:00:04.974Z,73.67
2019-03-29T23:02:38.600Z,76.22
2019-03-29T23:05:09.174Z,74.72
2019-03-29T23:07:39.518Z,72.10
2019-03-29T23:10:10.066Z,75.57
2019-03-29T23:12:40.406Z,75.22
2019-03-29T23:15:10.889Z,80.85
2019-03-29T23:17:41.228Z,77.58
2019-03-29T23:20:11.979Z,76.25
2019-03-29T23:22:42.323Z,75.05
2019-03-29T23:25:12.807Z,73.62
2019-03-29T23:27:43.149Z,71.90
2019-03-29T23:30:14.511Z,72.35
2019-03-29T23:32:45.791Z,71.75
2019-03-29T23:35:16.133Z,77.53
2019-03-29T23:37:46.478Z,73.83
2019-03-29T23:40:16.811Z,73.60
2019-03-29T23:42:47.226Z,73.02
2019-03-29T23:45:17.497Z,78.52
2019-03-29T23:47:47.850Z,75.62
2019-03-29T23:50:18.193Z,76.57
2019-03-29T23:52:48.539Z,72.58
2019-03-29T23:55:18.891Z,82.47
2019-03-29T23:57:49.230Z,64.35
